Time;durP1;ratioP1;P1;durP2;ratioP2;P2;SDS_P1;SDS_P2;PMS_P1;PMS_P2;Temp;Humidity;BMP_temperature;BMP_pressure;BME280_temperature;BME280_humidity;BME280_pressure;Samples;Min_cycle;Max_cycle;Signal;HPM_P1;HPM_P2
2022/04/29 00:00:59;;;;;;;0.28;0.10;;;17.10;41.90;;;;;;5051422;28;20025;-69
2022/04/29 00:03:25;;;;;;;1.65;0.52;;;17.10;42.20;;;;;;5052643;28;20481;-69
2022/04/29 00:05:53;;;;;;;2.05;1.40;;;17.10;41.80;;;;;;5051305;28;20040;-69
2022/04/29 00:08:19;;;;;;;23.20;1.67;;;17.20;41.80;;;;;;5051393;28;20024;-69
2022/04/29 00:10:46;;;;;;;0.00;0.00;;;17.30;41.40;;;;;;5051193;28;20029;-71
2022/04/29 00:13:14;;;;;;;0.17;0.10;;;17.30;40.90;;;;;;5053019;28;20017;-69
2022/04/29 00:15:41;;;;;;;1.13;0.45;;;17.40;40.70;;;;;;5052704;28;20376;-70
2022/04/29 00:18:07;;;;;;;1.60;0.30;;;17.50;40.40;;;;;;5051962;28;20032;-70
2022/04/29 00:20:36;;;;;;;0.63;0.35;;;17.60;40.30;;;;;;5051648;28;20021;-70
2022/04/29 00:23:02;;;;;;;1.10;0.57;;;17.70;40.20;;;;;;5070443;28;20026;-70
2022/04/29 00:25:29;;;;;;;0.00;0.00;;;17.70;40.10;;;;;;5050294;28;20036;-71
2022/04/29 00:27:56;;;;;;;2.20;0.52;;;17.70;40.40;;;;;;5038258;28;20017;-68
2022/04/29 00:30:22;;;;;;;2.17;1.95;;;17.70;40.30;;;;;;5048856;28;20043;-73
2022/04/29 00:32:48;;;;;;;1.08;0.10;;;17.60;40.90;;;;;;5046662;28;20014;-70
2022/04/29 00:35:14;;;;;;;0.55;0.30;;;17.70;40.80;;;;;;5045913;28;20108;-70
2022/04/29 00:37:49;;;;;;;0.40;0.20;;;17.70;40.90;;;;;;5041611;28;20029;-70
2022/04/29 00:40:20;;;;;;;0.52;0.10;;;17.70;40.90;;;;;;5048287;28;20028;-69
2022/04/29 00:42:46;;;;;;;0.00;0.00;;;17.70;41.30;;;;;;5047132;28;20021;-68
2022/04/29 00:45:18;;;;;;;0.35;0.35;;;17.70;41.60;;;;;;5041081;28;20017;-68
2022/04/29 00:47:46;;;;;;;5.45;0.50;;;17.80;41.70;;;;;;5052899;28;20075;-69
2022/04/29 00:50:14;;;;;;;1.10;0.00;;;17.90;41.40;;;;;;5049241;28;20104;-70
2022/04/29 00:52:47;;;;;;;0.45;0.20;;;18.10;41.50;;;;;;5050666;28;21179;-69
2022/04/29 00:55:14;;;;;;;0.20;0.17;;;18.40;41.00;;;;;;5053494;28;20032;-70
2022/04/29 00:57:57;;;;;;;0.05;0.00;;;18.70;40.60;;;;;;5054071;28;20028;-70
2022/04/29 01:00:24;;;;;;;0.00;0.00;;;18.80;40.90;;;;;;5053110;28;20454;-70
2022/04/29 01:02:53;;;;;;;0.00;0.00;;;18.90;41.00;;;;;;5051310;28;20021;-70
2022/04/29 01:05:22;;;;;;;2.53;0.30;;;19.00;41.00;;;;;;5052940;28;20070;-71
2022/04/29 01:07:49;;;;;;;0.95;0.95;;;18.90;40.60;;;;;;5047855;28;20029;-71
2022/04/29 01:10:20;;;;;;;0.00;0.00;;;18.80;41.20;;;;;;5050178;28;20017;-71
2022/04/29 01:12:57;;;;;;;0.00;0.00;;;18.90;41.20;;;;;;5053151;28;20021;-71
2022/04/29 01:15:24;;;;;;;0.00;0.00;;;18.60;42.10;;;;;;5052126;28;20033;-72
2022/04/29 01:17:54;;;;;;;0.38;0.30;;;18.40;42.20;;;;;;5053808;28;20056;-72
2022/04/29 01:20:24;;;;;;;0.00;0.00;;;18.20;42.10;;;;;;5050615;28;20087;-72
2022/04/29 01:22:50;;;;;;;0.00;0.00;;;18.20;42.90;;;;;;5045348;28;20021;-72
2022/04/29 01:25:16;;;;;;;6.45;0.20;;;18.10;43.00;;;;;;5053886;28;20103;-72
2022/04/29 01:27:42;;;;;;;1.20;0.22;;;17.90;43.40;;;;;;5054042;28;20469;-72
2022/04/29 01:30:11;;;;;;;0.10;0.10;;;17.80;43.70;;;;;;5053672;28;20048;-72
2022/04/29 01:32:41;;;;;;;1.55;1.45;;;17.80;44.40;;;;;;5053984;28;20028;-72
2022/04/29 01:35:10;;;;;;;0.52;0.32;;;17.80;44.00;;;;;;5053261;28;20078;-72
2022/04/29 01:37:37;;;;;;;1.02;1.02;;;18.00;43.70;;;;;;5042449;28;20417;-73
2022/04/29 01:40:04;;;;;;;0.05;0.05;;;18.10;43.80;;;;;;5052301;28;20497;-73
2022/04/29 01:42:30;;;;;;;0.00;0.00;;;18.30;43.80;;;;;;5048866;28;20033;-73
2022/04/29 01:44:56;;;;;;;0.32;0.20;;;18.90;42.60;;;;;;5052509;28;20028;-73
2022/04/29 01:47:23;;;;;;;0.10;0.10;;;19.40;41.80;;;;;;5045305;28;20036;-73
2022/04/29 01:49:49;;;;;;;0.10;0.10;;;19.30;41.80;;;;;;5040699;28;20100;-73
2022/04/29 01:52:15;;;;;;;3.08;1.15;;;19.30;42.30;;;;;;5046233;28;20085;-73
2022/04/29 01:54:41;;;;;;;0.00;0.00;;;19.60;42.30;;;;;;5050430;28;20534;-73
2022/04/29 01:57:08;;;;;;;0.10;0.10;;;19.80;42.20;;;;;;5049535;28;20025;-73
2022/04/29 01:59:38;;;;;;;0.00;0.00;;;20.80;41.50;;;;;;5074693;28;20029;-73
2022/04/29 02:02:07;;;;;;;1.45;0.32;;;21.80;40.10;;;;;;5051725;28;20086;-73
2022/04/29 02:04:37;;;;;;;0.50;0.15;;;22.60;38.60;;;;;;5052103;28;20034;-73
2022/04/29 02:07:04;;;;;;;0.00;0.00;;;22.40;38.60;;;;;;5053994;28;20122;-73
2022/04/29 02:09:30;;;;;;;1.13;0.65;;;22.60;38.40;;;;;;5049903;28;20032;-72
2022/04/29 02:12:05;;;;;;;0.00;0.00;;;22.90;38.00;;;;;;5038706;28;20143;-73
2022/04/29 02:14:40;;;;;;;1.00;0.93;;;22.70;38.10;;;;;;5046037;28;20495;-73
2022/04/29 02:17:07;;;;;;;0.15;0.05;;;22.80;37.90;;;;;;5034908;28;20025;-73
2022/04/29 02:19:35;;;;;;;0.00;0.00;;;22.90;38.20;;;;;;5034501;28;20036;-73
2022/04/29 02:22:03;;;;;;;0.00;0.00;;;23.30;38.70;;;;;;5034750;28;20026;-73
2022/04/29 02:24:29;;;;;;;0.47;0.40;;;23.90;37.90;;;;;;5034276;28;20497;-73
2022/04/29 02:26:57;;;;;;;0.00;0.00;;;23.50;35.50;;;;;;5040205;28;20017;-72
2022/04/29 02:29:23;;;;;;;1.88;0.57;;;22.70;37.00;;;;;;5050086;28;20021;-71
2022/04/29 02:31:49;;;;;;;0.60;0.60;;;22.40;38.20;;;;;;5042048;28;20013;-71
2022/04/29 02:34:16;;;;;;;2.05;0.30;;;22.70;38.70;;;;;;5046454;28;20496;-71
2022/04/29 02:36:42;;;;;;;0.70;0.30;;;23.20;37.10;;;;;;5049357;28;20043;-72
2022/04/29 02:39:08;;;;;;;37.72;25.80;;;23.20;37.40;;;;;;5044212;28;20078;-71
2022/04/29 02:41:36;;;;;;;0.13;0.10;;;23.00;38.10;;;;;;5053582;28;20095;-71
2022/04/29 02:44:03;;;;;;;0.00;0.00;;;23.60;37.70;;;;;;5054537;28;20070;-71
2022/04/29 02:46:29;;;;;;;0.00;0.00;;;23.80;37.80;;;;;;5053668;28;20049;-73
2022/04/29 02:48:55;;;;;;;0.00;0.00;;;24.70;37.10;;;;;;5052851;28;20056;-73
2022/04/29 02:51:21;;;;;;;0.30;0.30;;;25.30;35.80;;;;;;5044411;28;20049;-73
2022/04/29 02:53:47;;;;;;;0.03;0.00;;;25.90;35.20;;;;;;5044513;28;20393;-75
2022/04/29 02:56:13;;;;;;;0.00;0.00;;;25.50;34.90;;;;;;5045244;28;20025;-75
2022/04/29 02:58:39;;;;;;;0.00;0.00;;;25.50;35.40;;;;;;5046671;28;20376;-73
2022/04/29 03:01:05;;;;;;;0.20;0.20;;;25.90;34.00;;;;;;5050813;28;20029;-73
2022/04/29 03:03:31;;;;;;;0.10;0.10;;;25.60;32.70;;;;;;5045135;28;20025;-73
2022/04/29 03:05:57;;;;;;;0.00;0.00;;;25.90;32.20;;;;;;5046751;28;20043;-73
2022/04/29 03:08:23;;;;;;;0.08;0.08;;;26.70;32.20;;;;;;5053205;28;20017;-75
2022/04/29 03:10:58;;;;;;;0.10;0.10;;;27.00;32.90;;;;;;5049565;28;20135;-74
2022/04/29 03:13:24;;;;;;;0.00;0.00;;;28.10;33.30;;;;;;5045775;28;20531;-75
2022/04/29 03:15:50;;;;;;;0.20;0.17;;;27.80;32.20;;;;;;5047512;28;20036;-76
2022/04/29 03:18:20;;;;;;;0.10;0.10;;;26.40;33.70;;;;;;5045797;28;20044;-74
2022/04/29 03:20:50;;;;;;;0.10;0.10;;;26.50;34.10;;;;;;5049275;28;20534;-76
2022/04/29 03:23:16;;;;;;;0.00;0.00;;;25.50;34.00;;;;;;5045432;28;20032;-75
2022/04/29 03:25:42;;;;;;;2.10;2.00;;;25.50;32.40;;;;;;5043891;28;20056;-75
2022/04/29 03:28:09;;;;;;;0.00;0.00;;;25.40;31.00;;;;;;5042332;28;20032;-74
2022/04/29 03:30:36;;;;;;;0.00;0.00;;;25.30;31.90;;;;;;5046089;28;20039;-74
2022/04/29 03:33:05;;;;;;;0.00;0.00;;;25.30;30.80;;;;;;5047963;28;20075;-74
2022/04/29 03:35:31;;;;;;;0.52;0.52;;;25.10;31.40;;;;;;5047898;28;20028;-74
2022/04/29 03:37:58;;;;;;;2.55;2.38;;;24.90;30.80;;;;;;5044905;28;20048;-74
2022/04/29 03:40:25;;;;;;;0.00;0.00;;;24.70;30.70;;;;;;5044866;28;20041;-74
2022/04/29 03:42:53;;;;;;;0.47;0.45;;;24.60;31.00;;;;;;5049481;28;20124;-74
2022/04/29 03:45:24;;;;;;;0.05;0.05;;;24.70;31.10;;;;;;5047563;28;20036;-74
2022/04/29 03:47:51;;;;;;;0.10;0.10;;;24.70;31.40;;;;;;5050835;28;20082;-75
2022/04/29 03:50:17;;;;;;;0.10;0.10;;;24.50;33.80;;;;;;5048283;28;20104;-74
2022/04/29 03:52:48;;;;;;;0.00;0.00;;;24.00;35.40;;;;;;5050254;28;20076;-73
2022/04/29 03:55:17;;;;;;;0.00;0.00;;;23.90;36.10;;;;;;5047725;28;20033;-76
2022/04/29 03:57:43;;;;;;;0.00;0.00;;;23.80;36.90;;;;;;5060215;28;20029;-74
2022/04/29 04:00:10;;;;;;;5.72;5.30;;;23.90;37.70;;;;;;5046821;28;20090;-74
2022/04/29 04:02:37;;;;;;;0.00;0.00;;;23.90;37.30;;;;;;5046983;28;20546;-75
2022/04/29 04:05:03;;;;;;;18.23;1.08;;;23.70;37.80;;;;;;5047233;28;20032;-74
2022/04/29 04:07:29;;;;;;;0.00;0.00;;;23.60;36.30;;;;;;5048949;28;20140;-75
2022/04/29 04:09:55;;;;;;;0.00;0.00;;;23.30;36.90;;;;;;5047696;28;20112;-74
2022/04/29 04:12:21;;;;;;;1.65;0.25;;;23.20;35.20;;;;;;5046962;28;20032;-74
2022/04/29 04:14:47;;;;;;;0.00;0.00;;;23.10;36.60;;;;;;5040161;28;20034;-74
2022/04/29 04:17:13;;;;;;;0.00;0.00;;;23.00;37.90;;;;;;5052992;28;20016;-73
2022/04/29 04:19:40;;;;;;;0.10;0.10;;;23.00;39.30;;;;;;5049520;28;20594;-73
2022/04/29 04:22:06;;;;;;;0.00;0.00;;;23.10;37.30;;;;;;5049463;28;20111;-73
2022/04/29 04:24:32;;;;;;;0.00;0.00;;;23.30;38.50;;;;;;5048384;28;20448;-76
2022/04/29 04:26:58;;;;;;;0.13;0.13;;;23.40;39.60;;;;;;5051080;28;20021;-75
2022/04/29 04:29:24;;;;;;;0.00;0.00;;;23.40;37.40;;;;;;5044640;28;20074;-75
2022/04/29 04:31:51;;;;;;;0.00;0.00;;;23.70;37.10;;;;;;5049327;28;20487;-74
2022/04/29 04:37:23;;;;;;;0.00;0.00;;;24.30;37.20;;;;;;5035775;28;20269;-74
2022/04/29 04:39:50;;;;;;;0.00;0.00;;;24.30;36.40;;;;;;5063037;28;20025;-75
2022/04/29 04:42:17;;;;;;;0.32;0.30;;;24.50;36.40;;;;;;5068287;28;20221;-75
2022/04/29 04:44:49;;;;;;;0.80;0.77;;;24.70;35.30;;;;;;5056294;28;20036;-75
2022/04/29 04:47:17;;;;;;;1.00;0.95;;;24.50;36.20;;;;;;5048013;28;20017;-75
2022/04/29 04:49:43;;;;;;;129.25;19.55;;;24.80;37.30;;;;;;5047375;28;20095;-74
2022/04/29 04:52:09;;;;;;;0.00;0.00;;;24.90;37.20;;;;;;5046680;28;20037;-73
2022/04/29 04:54:36;;;;;;;1.40;1.40;;;25.30;37.60;;;;;;5050038;28;20167;-76
2022/04/29 04:57:03;;;;;;;4.72;4.28;;;25.00;35.70;;;;;;5049744;28;20032;-75
2022/04/29 04:59:30;;;;;;;1.85;1.75;;;24.60;35.10;;;;;;5050207;28;20060;-74
2022/04/29 05:01:56;;;;;;;7.90;7.38;;;24.40;36.40;;;;;;5049684;28;20033;-74
2022/04/29 05:04:22;;;;;;;4.80;1.75;;;24.60;36.70;;;;;;5051289;28;20380;-74
2022/04/29 05:06:48;;;;;;;0.22;0.20;;;24.70;36.20;;;;;;5050611;28;20021;-75
2022/04/29 05:09:14;;;;;;;0.10;0.10;;;24.70;36.50;;;;;;5045381;28;20086;-75
2022/04/29 05:11:40;;;;;;;0.00;0.00;;;24.50;37.10;;;;;;5049439;28;20049;-75
2022/04/29 05:14:06;;;;;;;0.85;0.85;;;24.40;37.60;;;;;;5051318;28;20048;-76
2022/04/29 05:16:32;;;;;;;0.00;0.00;;;24.80;37.70;;;;;;5054599;28;20032;-76
2022/04/29 05:18:58;;;;;;;4.55;2.92;;;24.90;38.50;;;;;;5050136;28;20048;-75
2022/04/29 05:21:24;;;;;;;0.00;0.00;;;25.00;40.20;;;;;;5054829;28;20476;-75
2022/04/29 05:23:50;;;;;;;0.30;0.28;;;25.00;40.70;;;;;;5050891;28;20037;-75
2022/04/29 05:26:19;;;;;;;0.52;0.05;;;24.90;41.50;;;;;;5054821;28;20017;-76
2022/04/29 05:28:45;;;;;;;0.10;0.10;;;25.10;42.00;;;;;;5054349;28;20032;-76
2022/04/29 05:31:11;;;;;;;0.00;0.00;;;25.10;41.50;;;;;;5053991;28;20039;-75
2022/04/29 05:33:40;;;;;;;0.00;0.00;;;25.30;39.60;;;;;;5053212;28;20036;-74
2022/04/29 05:36:08;;;;;;;0.80;0.80;;;25.20;40.50;;;;;;5047513;28;20040;-76
2022/04/29 05:44:08;;;;;;;0.38;0.38;;;25.30;42.20;;;;;;5045430;28;20523;-75
2022/04/29 05:46:35;;;;;;;0.00;0.00;;;25.40;42.30;;;;;;5050009;28;20186;-74
2022/04/29 05:49:02;;;;;;;0.00;0.00;;;25.50;42.20;;;;;;5051025;28;20096;-75
2022/04/29 05:51:28;;;;;;;0.65;0.43;;;25.40;42.70;;;;;;5046099;28;20029;-73
2022/04/29 05:53:54;;;;;;;2.15;1.25;;;25.40;41.80;;;;;;5048587;28;20083;-73
2022/04/29 05:56:20;;;;;;;6.10;5.57;;;25.50;42.40;;;;;;5045292;28;20576;-74
2022/04/29 05:58:46;;;;;;;8.45;7.78;;;25.90;40.80;;;;;;5042747;28;20047;-73
2022/04/29 06:01:12;;;;;;;0.08;0.00;;;25.40;42.40;;;;;;5048756;28;20474;-76
2022/04/29 06:03:38;;;;;;;0.43;0.20;;;25.20;40.50;;;;;;5045649;28;20025;-76
2022/04/29 06:06:05;;;;;;;0.00;0.00;;;25.30;41.40;;;;;;5052541;28;20028;-75
2022/04/29 06:08:31;;;;;;;0.28;0.28;;;25.70;40.00;;;;;;5053149;28;20044;-76
2022/04/29 06:10:57;;;;;;;0.00;0.00;;;26.00;39.40;;;;;;5046441;28;20021;-76
2022/04/29 06:13:23;;;;;;;0.05;0.05;;;26.30;40.10;;;;;;5047072;28;20021;-78
2022/04/29 06:15:49;;;;;;;0.35;0.30;;;26.30;40.30;;;;;;5048265;28;20063;-75
2022/04/29 06:18:15;;;;;;;0.00;0.00;;;25.80;40.20;;;;;;5048632;28;20033;-75
2022/04/29 06:20:41;;;;;;;0.00;0.00;;;26.10;40.60;;;;;;5050775;28;20032;-76
2022/04/29 06:23:07;;;;;;;0.00;0.00;;;26.20;40.40;;;;;;5049222;28;20036;-77
2022/04/29 06:25:33;;;;;;;0.25;0.25;;;26.30;40.60;;;;;;5045218;28;20099;-75
2022/04/29 06:27:59;;;;;;;4.25;1.02;;;26.30;41.20;;;;;;5040054;28;20037;-83
2022/04/29 06:30:25;;;;;;;0.00;0.00;;;26.30;38.90;;;;;;5056987;28;20476;-82
2022/04/29 06:32:55;;;;;;;0.05;0.05;;;26.40;38.20;;;;;;5061149;28;20073;-82
2022/04/29 06:35:21;;;;;;;0.77;0.77;;;26.60;38.00;;;;;;5051393;28;20499;-80
2022/04/29 06:37:48;;;;;;;0.22;0.22;;;26.30;39.40;;;;;;5042274;28;20026;-80
2022/04/29 06:40:14;;;;;;;0.00;0.00;;;26.00;42.30;;;;;;5048905;28;20028;-79
2022/04/29 06:42:47;;;;;;;1.40;1.33;;;26.00;42.60;;;;;;5042516;28;20029;-78
2022/04/29 06:45:14;;;;;;;27.38;2.55;;;26.20;43.40;;;;;;5051830;28;20060;-80
2022/04/29 06:47:40;;;;;;;0.00;0.00;;;26.30;41.80;;;;;;5047410;28;20029;-81
2022/04/29 06:50:07;;;;;;;0.00;0.00;;;26.40;40.40;;;;;;5047242;28;20461;-79
2022/04/29 06:52:34;;;;;;;0.10;0.10;;;26.60;38.10;;;;;;5047588;28;20119;-80
2022/04/29 06:55:00;;;;;;;0.25;0.25;;;26.50;36.80;;;;;;5051347;28;20412;-79
2022/04/29 06:57:26;;;;;;;0.50;0.50;;;26.70;37.00;;;;;;5047074;28;20040;-79
2022/04/29 06:59:52;;;;;;;0.00;0.00;;;26.60;36.80;;;;;;5045731;28;20060;-81
2022/04/29 07:02:18;;;;;;;0.32;0.32;;;26.70;38.80;;;;;;5047152;28;20100;-80
2022/04/29 07:04:45;;;;;;;0.00;0.00;;;26.70;41.20;;;;;;5050669;28;20068;-78
2022/04/29 07:07:11;;;;;;;0.22;0.22;;;26.60;42.20;;;;;;5051061;28;20021;-78
2022/04/29 07:09:41;;;;;;;0.63;0.30;;;26.80;42.10;;;;;;5044332;28;20117;-78
2022/04/29 07:12:08;;;;;;;0.00;0.00;;;26.90;42.70;;;;;;5051233;28;20052;-79
2022/04/29 07:14:34;;;;;;;0.00;0.00;;;27.00;42.70;;;;;;5042648;28;20065;-76
2022/04/29 07:17:01;;;;;;;0.10;0.10;;;27.10;42.00;;;;;;5052035;28;20078;-74
2022/04/29 07:19:27;;;;;;;0.20;0.20;;;27.00;42.60;;;;;;5050804;28;20033;-76
2022/04/29 07:21:53;;;;;;;0.10;0.10;;;27.10;43.10;;;;;;5049522;28;20104;-76
2022/04/29 07:24:19;;;;;;;0.00;0.00;;;27.30;43.30;;;;;;5049414;28;20036;-76
2022/04/29 07:26:45;;;;;;;0.03;0.03;;;27.40;43.90;;;;;;5046778;28;20036;-76
2022/04/29 07:29:12;;;;;;;0.00;0.00;;;27.40;43.40;;;;;;5054604;28;20040;-75
2022/04/29 07:31:38;;;;;;;0.40;0.40;;;27.10;44.40;;;;;;5051009;28;20119;-75
2022/04/29 07:34:04;;;;;;;7.63;4.00;;;26.40;45.30;;;;;;5044232;28;20432;-75
2022/04/29 07:41:44;;;;;;;0.38;0.38;;;26.30;45.00;;;;;;5047756;28;20235;-72
2022/04/29 07:42:06;;;;;;;0.00;0.00;;;26.60;43.80;;;;;;5048100;28;20024;-74
2022/04/29 07:44:33;;;;;;;6.75;1.48;;;27.00;43.70;;;;;;5043441;28;20149;-74
2022/04/29 07:47:00;;;;;;;0.08;0.08;;;27.30;44.60;;;;;;5040647;28;21749;-73
2022/04/29 07:49:26;;;;;;;0.00;0.00;;;27.10;44.50;;;;;;5041903;28;20018;-75
2022/04/29 07:51:53;;;;;;;0.00;0.00;;;27.10;43.90;;;;;;5048410;28;20049;-72
2022/04/29 07:54:19;;;;;;;0.15;0.15;;;27.20;43.60;;;;;;5045862;28;20070;-73
2022/04/29 07:56:45;;;;;;;1.00;1.00;;;27.20;43.50;;;;;;5047086;28;20108;-74
2022/04/29 07:59:14;;;;;;;1.55;0.45;;;27.20;44.30;;;;;;5045054;28;20488;-74
2022/04/29 08:01:43;;;;;;;0.03;0.03;;;27.00;45.80;;;;;;5044114;28;20393;-75
2022/04/29 08:04:12;;;;;;;0.75;0.75;;;27.00;45.30;;;;;;5038735;28;20366;-73
2022/04/29 08:06:39;;;;;;;0.00;0.00;;;27.10;43.80;;;;;;5045936;28;20020;-73
2022/04/29 08:09:05;;;;;;;0.00;0.00;;;27.20;43.40;;;;;;5040603;28;20036;-72
2022/04/29 08:11:31;;;;;;;7.32;6.70;;;27.10;43.90;;;;;;5053227;28;20469;-72
2022/04/29 08:13:58;;;;;;;0.00;0.00;;;27.30;43.30;;;;;;5049409;28;20106;-74
2022/04/29 08:16:24;;;;;;;0.10;0.10;;;27.50;41.40;;;;;;5044654;28;20657;-74
2022/04/29 08:18:50;;;;;;;2.05;1.95;;;27.50;41.10;;;;;;5041400;28;20021;-73
2022/04/29 08:21:16;;;;;;;2.35;0.82;;;27.80;39.80;;;;;;5044221;28;20036;-75
2022/04/29 08:23:42;;;;;;;0.10;0.10;;;27.30;41.50;;;;;;5044392;28;20021;-75
2022/04/29 08:26:08;;;;;;;1.35;0.38;;;27.20;42.50;;;;;;5043075;28;21662;-75
2022/04/29 08:28:34;;;;;;;0.00;0.00;;;27.60;40.80;;;;;;5047037;28;20071;-74
2022/04/29 08:31:00;;;;;;;11.65;1.65;;;27.60;40.50;;;;;;5044545;28;20017;-75
2022/04/29 08:33:26;;;;;;;0.90;0.90;;;27.30;40.50;;;;;;5041890;28;20041;-73
2022/04/29 08:35:53;;;;;;;0.10;0.10;;;27.60;40.10;;;;;;5041129;28;20026;-76
2022/04/29 08:38:19;;;;;;;0.10;0.10;;;28.10;38.40;;;;;;5039760;28;20037;-75
2022/04/29 08:40:46;;;;;;;10.63;0.43;;;28.10;38.80;;;;;;5045099;28;20622;-76
2022/04/29 08:43:14;;;;;;;0.32;0.10;;;28.20;40.10;;;;;;5047047;28;20029;-75
2022/04/29 08:45:41;;;;;;;2.55;0.80;;;28.20;38.40;;;;;;5053984;28;20028;-76
2022/04/29 08:48:07;;;;;;;0.00;0.00;;;28.10;38.50;;;;;;5037604;28;20531;-75
2022/04/29 08:50:34;;;;;;;0.13;0.13;;;28.20;39.00;;;;;;5044098;28;20032;-75
2022/04/29 08:53:00;;;;;;;0.00;0.00;;;28.50;38.50;;;;;;5041137;28;20127;-75
2022/04/29 09:01:13;;;;;;;0.00;0.00;;;28.10;39.60;;;;;;5049834;28;20443;-73
2022/04/29 09:03:42;;;;;;;0.00;0.00;;;28.40;39.90;;;;;;5049578;28;20029;-73
2022/04/29 09:06:08;;;;;;;1.55;0.45;;;28.70;40.50;;;;;;5047543;28;20025;-74
2022/04/29 09:08:45;;;;;;;1.75;0.20;;;28.80;40.40;;;;;;5048215;28;20056;-74
2022/04/29 09:11:20;;;;;;;2.55;0.68;;;28.70;40.90;;;;;;5051271;28;20414;-73
2022/04/29 09:13:46;;;;;;;0.40;0.40;;;28.60;40.30;;;;;;5058041;28;20083;-74
2022/04/29 09:16:14;;;;;;;0.10;0.10;;;28.50;40.30;;;;;;5052379;28;20017;-72
2022/04/29 09:18:45;;;;;;;0.10;0.10;;;28.50;41.10;;;;;;5043994;28;20025;-73
2022/04/29 09:21:13;;;;;;;0.00;0.00;;;28.40;40.80;;;;;;5058649;28;20086;-73
2022/04/29 09:23:42;;;;;;;0.35;0.35;;;28.40;41.70;;;;;;5048127;28;20104;-73
2022/04/29 09:26:35;;;;;;;0.00;0.00;;;28.50;42.00;;;;;;5052218;28;20064;-76
2022/04/29 09:29:18;;;;;;;0.40;0.40;;;28.50;42.00;;;;;;5048614;28;20018;-77
2022/04/29 09:32:00;;;;;;;0.00;0.00;;;28.70;41.70;;;;;;5049189;28;20492;-76
2022/04/29 09:34:50;;;;;;;0.47;0.43;;;28.50;42.50;;;;;;5046050;28;20120;-75
2022/04/29 09:37:18;;;;;;;0.00;0.00;;;28.20;43.80;;;;;;5054105;28;20025;-75
2022/04/29 09:39:57;;;;;;;0.00;0.00;;;28.00;44.20;;;;;;5049466;28;20508;-73
2022/04/29 09:42:35;;;;;;;0.20;0.20;;;28.20;44.00;;;;;;5048833;28;20524;-76
2022/04/29 09:45:17;;;;;;;0.15;0.15;;;28.30;43.40;;;;;;5051334;28;20032;-75
2022/04/29 09:47:44;;;;;;;0.00;0.00;;;28.40;42.70;;;;;;5052742;28;20067;-76
2022/04/29 09:50:10;;;;;;;7.65;2.92;;;28.30;41.60;;;;;;5048092;28;20476;-76
2022/04/29 09:52:44;;;;;;;0.50;0.28;;;28.40;42.70;;;;;;5046097;28;20076;-75
2022/04/29 09:55:12;;;;;;;0.10;0.10;;;28.50;43.50;;;;;;5053408;28;20485;-77
2022/04/29 09:58:01;;;;;;;14.60;4.57;;;28.70;42.80;;;;;;5054423;28;20033;-76
2022/04/29 10:00:28;;;;;;;0.00;0.00;;;28.40;42.40;;;;;;5047235;28;20036;-75
2022/04/29 10:02:56;;;;;;;0.00;0.00;;;28.50;41.50;;;;;;5054926;28;20029;-78
2022/04/29 10:05:23;;;;;;;15.07;1.20;;;28.40;41.80;;;;;;5053204;28;20020;-75
2022/04/29 10:07:49;;;;;;;0.10;0.10;;;28.50;42.90;;;;;;5053591;28;20108;-76
2022/04/29 10:10:16;;;;;;;1.58;1.48;;;28.60;43.60;;;;;;5053443;28;20104;-76
2022/04/29 10:12:47;;;;;;;0.47;0.35;;;28.40;42.60;;;;;;5052682;28;20096;-75
2022/04/29 10:15:17;;;;;;;0.65;0.55;;;28.10;43.80;;;;;;5049001;28;20025;-75
2022/04/29 10:23:15;;;;;;;0.00;0.00;;;28.70;39.10;;;;;;5057062;28;20159;-74
2022/04/29 10:25:45;;;;;;;0.20;0.20;;;28.60;39.50;;;;;;5056335;28;20104;-75
2022/04/29 10:28:17;;;;;;;2.38;2.28;;;28.50;40.40;;;;;;5054396;28;20017;-75
2022/04/29 10:30:43;;;;;;;0.20;0.15;;;28.70;40.30;;;;;;5051975;28;20457;-76
2022/04/29 10:33:24;;;;;;;0.88;0.88;;;29.00;39.60;;;;;;5053225;28;20021;-74
2022/04/29 10:35:53;;;;;;;0.00;0.00;;;29.10;40.00;;;;;;5050561;28;20029;-75
2022/04/29 10:38:36;;;;;;;1.15;0.77;;;29.00;39.70;;;;;;5046109;28;20128;-74
2022/04/29 10:41:23;;;;;;;0.00;0.00;;;29.10;39.40;;;;;;5043689;28;20025;-74
2022/04/29 10:43:55;;;;;;;0.38;0.38;;;29.10;39.20;;;;;;5053068;28;20476;-74
2022/04/29 10:46:35;;;;;;;0.47;0.47;;;28.80;40.00;;;;;;5046869;28;20040;-76
2022/04/29 10:49:24;;;;;;;0.10;0.10;;;28.80;41.30;;;;;;5055938;28;20063;-77
2022/04/29 10:52:02;;;;;;;0.00;0.00;;;28.80;41.20;;;;;;5050261;28;20032;-77
2022/04/29 10:54:34;;;;;;;0.55;0.55;;;28.90;41.00;;;;;;5049443;28;20024;-76
2022/04/29 10:57:02;;;;;;;3.53;2.05;;;28.70;41.70;;;;;;5050451;28;20497;-75
2022/04/29 10:59:47;;;;;;;0.00;0.00;;;28.30;43.40;;;;;;5051602;28;21496;-76
2022/04/29 11:02:23;;;;;;;0.80;0.80;;;28.40;43.30;;;;;;5051846;28;20028;-75
2022/04/29 11:04:49;;;;;;;6.45;3.63;;;28.00;43.50;;;;;;5042939;28;20014;-77
2022/04/29 11:07:44;;;;;;;1.92;1.70;;;28.20;43.60;;;;;;5043280;28;20036;-77
2022/04/29 11:10:12;;;;;;;0.75;0.35;;;28.40;43.50;;;;;;5055603;28;20074;-76
2022/04/29 11:12:40;;;;;;;0.38;0.38;;;28.10;41.70;;;;;;5049171;28;20049;-76
2022/04/29 11:15:18;;;;;;;0.00;0.00;;;28.20;42.50;;;;;;5050553;28;20390;-76
2022/04/29 11:17:44;;;;;;;0.00;0.00;;;28.20;42.20;;;;;;5056076;28;20028;-75
2022/04/29 11:20:24;;;;;;;0.52;0.25;;;28.40;42.10;;;;;;5050085;28;20112;-75
2022/04/29 11:25:58;;;;;;;0.00;0.00;;;28.50;41.40;;;;;;5040489;28;20099;-75
2022/04/29 11:28:26;;;;;;;0.00;0.00;;;28.60;41.40;;;;;;5057917;28;20021;-76
2022/04/29 11:31:22;;;;;;;0.00;0.00;;;28.60;40.20;;;;;;5058078;28;20025;-76
2022/04/29 11:33:48;;;;;;;0.00;0.00;;;28.70;40.80;;;;;;5032515;28;20064;-78
2022/04/29 11:36:14;;;;;;;0.00;0.00;;;28.50;42.20;;;;;;5051345;28;20025;-75
2022/04/29 11:38:46;;;;;;;0.00;0.00;;;28.50;42.20;;;;;;5051786;28;20033;-73
2022/04/29 11:41:19;;;;;;;0.55;0.55;;;28.30;43.10;;;;;;5044525;28;20078;-75
2022/04/29 11:43:47;;;;;;;0.35;0.35;;;28.30;44.20;;;;;;5041609;28;20527;-75
2022/04/29 11:46:14;;;;;;;0.00;0.00;;;28.30;44.00;;;;;;5046310;28;20029;-75
2022/04/29 11:48:51;;;;;;;0.35;0.35;;;28.20;45.40;;;;;;5057341;28;20388;-75
2022/04/29 11:51:17;;;;;;;0.00;0.00;;;28.10;46.00;;;;;;5062768;28;20033;-75
2022/04/29 11:54:00;;;;;;;0.00;0.00;;;28.20;44.90;;;;;;5059810;28;20052;-76
2022/04/29 11:56:35;;;;;;;0.00;0.00;;;28.20;45.20;;;;;;5059058;28;20066;-74
2022/04/29 11:59:04;;;;;;;0.00;0.00;;;27.70;45.40;;;;;;5056176;28;20066;-75
2022/04/29 12:01:30;;;;;;;0.05;0.05;;;27.50;46.10;;;;;;5059155;28;20099;-77
2022/04/29 12:03:57;;;;;;;0.00;0.00;;;27.60;46.30;;;;;;5043875;28;20024;-79
2022/04/29 12:06:23;;;;;;;0.15;0.15;;;27.60;45.90;;;;;;5053372;28;20025;-78
2022/04/29 12:08:50;;;;;;;0.00;0.00;;;27.60;45.90;;;;;;5041636;28;20025;-81
2022/04/29 12:11:28;;;;;;;0.30;0.30;;;27.60;46.30;;;;;;5051110;28;20021;-80
2022/04/29 12:13:54;;;;;;;6.45;6.15;;;27.50;45.90;;;;;;5045322;28;20026;-78
2022/04/29 12:16:21;;;;;;;0.45;0.45;;;27.50;45.90;;;;;;5056212;28;20032;-80
2022/04/29 12:18:49;;;;;;;0.00;0.00;;;27.50;46.30;;;;;;5058331;28;20075;-80
2022/04/29 12:21:24;;;;;;;0.15;0.15;;;27.50;45.50;;;;;;5049687;28;20017;-80
2022/04/29 12:23:53;;;;;;;0.30;0.30;;;27.50;45.20;;;;;;5055571;28;20026;-80
2022/04/29 12:26:20;;;;;;;1.75;0.68;;;27.10;45.40;;;;;;5061019;28;20025;-80
2022/04/29 12:28:56;;;;;;;0.40;0.40;;;26.90;44.80;;;;;;5047417;28;20021;-81
2022/04/29 12:36:58;;;;;;;8.95;4.13;;;26.30;48.30;;;;;;5040685;28;20120;-76
2022/04/29 12:39:26;;;;;;;0.00;0.00;;;26.20;48.60;;;;;;5057870;28;20028;-77
2022/04/29 12:42:07;;;;;;;0.08;0.08;;;26.20;49.10;;;;;;5061654;28;20485;-77
2022/04/29 12:45:04;;;;;;;0.00;0.00;;;26.00;49.30;;;;;;5047506;28;20031;-76
2022/04/29 12:47:38;;;;;;;0.00;0.00;;;25.90;49.70;;;;;;5053873;28;20040;-77
2022/04/29 12:50:49;;;;;;;0.00;0.00;;;25.90;49.40;;;;;;5057220;28;20491;-77
2022/04/29 12:53:18;;;;;;;0.00;0.00;;;25.90;49.00;;;;;;5060538;28;20463;-76
2022/04/29 12:55:44;;;;;;;0.10;0.10;;;25.80;49.40;;;;;;5054474;28;20100;-75
2022/04/29 12:58:15;;;;;;;0.00;0.00;;;25.70;49.80;;;;;;5039432;28;20568;-76
2022/04/29 13:00:50;;;;;;;1.08;0.90;;;25.70;50.60;;;;;;5047630;28;20056;-77
2022/04/29 13:03:19;;;;;;;5.72;1.50;;;25.60;51.20;;;;;;5041431;28;20152;-74
2022/04/29 13:05:45;;;;;;;0.00;0.00;;;25.70;54.10;;;;;;5048723;28;20052;-75
2022/04/29 13:08:12;;;;;;;0.20;0.20;;;25.70;54.50;;;;;;5046813;28;20033;-77
2022/04/29 13:10:43;;;;;;;3.13;3.03;;;25.60;55.40;;;;;;5048398;28;20025;-76
2022/04/29 13:13:09;;;;;;;0.55;0.45;;;25.50;56.20;;;;;;5043221;28;20330;-76
2022/04/29 13:15:38;;;;;;;0.00;0.00;;;25.60;56.50;;;;;;5042294;28;20435;-75
2022/04/29 13:18:04;;;;;;;1.75;1.55;;;25.60;56.40;;;;;;5046258;28;20024;-76
2022/04/29 13:20:30;;;;;;;1.88;0.85;;;25.40;57.40;;;;;;5053284;28;20091;-75
2022/04/29 13:22:56;;;;;;;6.40;6.00;;;25.20;58.40;;;;;;5052287;28;20120;-77
2022/04/29 13:25:22;;;;;;;0.05;0.05;;;25.30;58.70;;;;;;5045001;28;20021;-76